Time;durP1;ratioP1;P1;durP2;ratioP2;P2;SDS_P1;SDS_P2;PMS_P1;PMS_P2;Temp;Humidity;BMP_temperature;BMP_pressure;BME280_temperature;BME280_humidity;BME280_pressure;Samples;Min_cycle;Max_cycle;Signal;HPM_P1;HPM_P2
2022/01/02 00:02:20;;;;;;;8.47;6.30;;;;;;;;;;5067131;28;20449;-79
2022/01/02 00:04:50;;;;;;;7.90;6.20;;;;;;;;;;5067971;28;20823;-78
2022/01/02 00:07:18;;;;;;;8.70;6.67;;;;;;;;;;5067531;28;20486;-83
2022/01/02 00:09:46;;;;;;;8.80;6.47;;;;;;;;;;5050299;28;20483;-82
2022/01/02 00:12:24;;;;;;;8.10;6.90;;;;;;;;;;5066287;28;20490;-83
2022/01/02 00:14:55;;;;;;;8.27;6.43;;;;;;;;;;5033673;28;20500;-81
2022/01/02 00:17:24;;;;;;;10.00;6.53;;;;;;;;;;5066007;28;20531;-81
2022/01/02 00:19:54;;;;;;;8.10;6.37;;;;;;;;;;5067458;28;20451;-79
2022/01/02 00:22:27;;;;;;;8.30;5.97;;;;;;;;;;5072647;28;20479;-79
2022/01/02 00:24:55;;;;;;;9.77;6.90;;;;;;;;;;5070933;28;21256;-78
2022/01/02 00:27:26;;;;;;;8.80;6.50;;;;;;;;;;5067250;28;20468;-80
2022/01/02 00:29:53;;;;;;;9.33;6.20;;;;;;;;;;5067166;28;20482;-80
2022/01/02 00:32:23;;;;;;;8.73;6.20;;;;;;;;;;5068509;28;20560;-81
2022/01/02 00:34:54;;;;;;;8.87;5.80;;;;;;;;;;5051879;28;20432;-78
2022/01/02 00:37:24;;;;;;;6.60;5.77;;;;;;;;;;5051407;28;20420;-81
2022/01/02 00:39:51;;;;;;;8.43;5.53;;;;;;;;;;5068384;28;20464;-80
2022/01/02 00:42:21;;;;;;;8.03;5.73;;;;;;;;;;5066007;28;20445;-79
2022/01/02 00:44:55;;;;;;;6.07;5.23;;;;;;;;;;5068671;28;20865;-79
2022/01/02 00:47:25;;;;;;;10.33;5.77;;;;;;;;;;5066923;28;20533;-81
2022/01/02 00:50:00;;;;;;;8.03;5.70;;;;;;;;;;5049835;28;20507;-80
2022/01/02 00:52:27;;;;;;;9.50;6.20;;;;;;;;;;5050532;28;20453;-81
2022/01/02 00:54:56;;;;;;;7.70;5.43;;;;;;;;;;5069601;28;20808;-83
2022/01/02 00:57:34;;;;;;;9.43;5.97;;;;;;;;;;5068808;28;20463;-81
2022/01/02 01:00:06;;;;;;;7.67;5.57;;;;;;;;;;5067115;28;21264;-81
2022/01/02 01:02:37;;;;;;;7.80;5.77;;;;;;;;;;5067161;28;20554;-81
2022/01/02 01:05:05;;;;;;;8.37;5.50;;;;;;;;;;5071283;28;20480;-83
2022/01/02 01:07:33;;;;;;;7.27;5.97;;;;;;;;;;5055502;28;20792;-83
2022/01/02 01:10:02;;;;;;;14.80;5.70;;;;;;;;;;5070289;28;20470;-83
2022/01/02 01:12:29;;;;;;;9.97;6.43;;;;;;;;;;5071620;28;20491;-81
2022/01/02 01:14:57;;;;;;;8.73;6.30;;;;;;;;;;5070730;28;20435;-81
2022/01/02 01:17:26;;;;;;;9.13;5.73;;;;;;;;;;5068626;28;20464;-82
2022/01/02 01:19:53;;;;;;;7.07;5.80;;;;;;;;;;5071453;28;20476;-82
2022/01/02 01:22:24;;;;;;;7.97;5.80;;;;;;;;;;5054195;28;20855;-79
2022/01/02 01:24:51;;;;;;;6.90;5.33;;;;;;;;;;5071889;28;20480;-81
2022/01/02 01:27:18;;;;;;;8.20;6.10;;;;;;;;;;5072614;28;20448;-81
2022/01/02 01:29:45;;;;;;;7.07;5.30;;;;;;;;;;5070898;28;20558;-81
2022/01/02 01:32:15;;;;;;;6.63;5.60;;;;;;;;;;5069140;28;20459;-81
2022/01/02 01:34:46;;;;;;;7.00;5.87;;;;;;;;;;5071967;28;20444;-79
2022/01/02 01:37:13;;;;;;;7.03;6.00;;;;;;;;;;5071366;28;20456;-80
2022/01/02 01:39:43;;;;;;;6.70;5.80;;;;;;;;;;5072145;28;20460;-82
2022/01/02 01:42:12;;;;;;;7.57;5.97;;;;;;;;;;5071147;28;20467;-82
2022/01/02 01:45:02;;;;;;;9.10;6.13;;;;;;;;;;5071763;28;20850;-81
2022/01/02 01:47:28;;;;;;;6.97;5.50;;;;;;;;;;5053948;28;20796;-79
2022/01/02 01:49:56;;;;;;;7.23;5.47;;;;;;;;;;5070252;28;20476;-79
2022/01/02 01:52:24;;;;;;;6.57;5.70;;;;;;;;;;5072943;28;20798;-81
2022/01/02 01:54:51;;;;;;;8.30;5.93;;;;;;;;;;5070956;28;20618;-80
2022/01/02 01:57:18;;;;;;;9.27;5.67;;;;;;;;;;5072858;28;20440;-83
2022/01/02 01:59:48;;;;;;;9.00;6.73;;;;;;;;;;5072250;28;20483;-81
2022/01/02 02:02:15;;;;;;;7.10;5.40;;;;;;;;;;5056513;28;20454;-80
2022/01/02 02:04:43;;;;;;;6.73;5.80;;;;;;;;;;5073349;28;20480;-82
2022/01/02 02:07:11;;;;;;;8.40;6.00;;;;;;;;;;5070293;28;20527;-82
2022/01/02 02:09:55;;;;;;;9.47;6.37;;;;;;;;;;5069750;28;20458;-80
2022/01/02 02:12:22;;;;;;;8.70;6.53;;;;;;;;;;5070753;28;20450;-80
2022/01/02 02:14:49;;;;;;;6.50;5.50;;;;;;;;;;5070618;28;20445;-83
2022/01/02 02:17:17;;;;;;;8.73;6.47;;;;;;;;;;5072310;28;20528;-83
2022/01/02 02:19:45;;;;;;;9.13;6.80;;;;;;;;;;5070773;28;20841;-80
2022/01/02 02:22:14;;;;;;;9.17;6.40;;;;;;;;;;5071944;28;20891;-80
2022/01/02 02:24:41;;;;;;;9.93;6.80;;;;;;;;;;5074041;28;20487;-83
2022/01/02 02:27:08;;;;;;;7.53;6.33;;;;;;;;;;5074002;28;20441;-80
2022/01/02 02:29:36;;;;;;;10.57;6.83;;;;;;;;;;5071376;28;20513;-80
2022/01/02 02:32:03;;;;;;;8.40;6.63;;;;;;;;;;5067994;28;20460;-78
2022/01/02 02:34:30;;;;;;;8.53;6.93;;;;;;;;;;5068699;28;20837;-80
2022/01/02 02:36:57;;;;;;;14.00;7.03;;;;;;;;;;5071478;28;20971;-80
2022/01/02 02:39:27;;;;;;;10.73;6.77;;;;;;;;;;5071266;28;20465;-80
2022/01/02 02:41:54;;;;;;;10.47;7.40;;;;;;;;;;5071747;28;20809;-80
2022/01/02 02:44:34;;;;;;;8.07;6.63;;;;;;;;;;5069908;28;20478;-79
2022/01/02 02:49:43;;;;;;;8.50;7.10;;;;;;;;;;5071148;28;20598;-80
2022/01/02 02:52:18;;;;;;;10.70;7.70;;;;;;;;;;5067114;28;20464;-81
2022/01/02 02:54:47;;;;;;;9.80;7.00;;;;;;;;;;5067634;28;20459;-81
2022/01/02 02:57:15;;;;;;;8.53;6.83;;;;;;;;;;5070360;28;20444;-83
2022/01/02 02:59:42;;;;;;;9.57;7.07;;;;;;;;;;5069323;28;20468;-79
2022/01/02 03:02:09;;;;;;;7.90;6.90;;;;;;;;;;5069068;28;20673;-79
2022/01/02 03:04:36;;;;;;;8.83;6.80;;;;;;;;;;5069328;28;20826;-82
2022/01/02 03:07:03;;;;;;;12.57;6.80;;;;;;;;;;5067572;28;20460;-84
2022/01/02 03:09:38;;;;;;;9.33;7.57;;;;;;;;;;5067817;28;20862;-84
2022/01/02 03:12:08;;;;;;;11.90;7.10;;;;;;;;;;5068422;28;20460;-85
2022/01/02 03:14:35;;;;;;;8.20;6.20;;;;;;;;;;5070688;28;20949;-82
2022/01/02 03:17:03;;;;;;;10.27;6.97;;;;;;;;;;5070838;28;20806;-82
2022/01/02 03:19:31;;;;;;;7.40;6.50;;;;;;;;;;5070723;28;20498;-85
2022/01/02 03:21:58;;;;;;;8.70;6.57;;;;;;;;;;5048459;28;20483;-84
2022/01/02 03:24:26;;;;;;;12.97;6.50;;;;;;;;;;5067987;28;20479;-85
2022/01/02 03:26:53;;;;;;;8.23;6.33;;;;;;;;;;5067493;28;20459;-82
2022/01/02 03:29:22;;;;;;;9.40;6.87;;;;;;;;;;5069684;28;20471;-80
2022/01/02 03:31:49;;;;;;;7.80;6.10;;;;;;;;;;5069857;28;20458;-85
2022/01/02 03:34:17;;;;;;;7.43;6.20;;;;;;;;;;5070267;28;20444;-79
2022/01/02 03:36:44;;;;;;;7.53;6.03;;;;;;;;;;5069638;28;20669;-82
2022/01/02 03:39:11;;;;;;;8.47;6.30;;;;;;;;;;5068168;28;20476;-81
2022/01/02 03:41:38;;;;;;;7.90;6.37;;;;;;;;;;5067731;28;20800;-81
2022/01/02 03:44:05;;;;;;;7.87;6.47;;;;;;;;;;5068961;28;20450;-83
2022/01/02 03:46:35;;;;;;;8.10;6.33;;;;;;;;;;5069870;28;20850;-83
2022/01/02 03:49:02;;;;;;;7.13;6.37;;;;;;;;;;5069937;28;20472;-84
2022/01/02 03:51:29;;;;;;;9.00;7.00;;;;;;;;;;5067627;28;20470;-80
2022/01/02 03:53:56;;;;;;;9.13;6.43;;;;;;;;;;5068569;28;20459;-80
2022/01/02 03:56:23;;;;;;;7.67;6.13;;;;;;;;;;5067182;28;20807;-82
2022/01/02 03:58:51;;;;;;;7.50;6.53;;;;;;;;;;5067308;28;20459;-81
2022/01/02 04:01:18;;;;;;;9.67;6.83;;;;;;;;;;5068045;28;20474;-79
2022/01/02 04:03:46;;;;;;;7.90;6.70;;;;;;;;;;5068923;28;20490;-83
2022/01/02 04:06:13;;;;;;;7.80;6.80;;;;;;;;;;5071262;28;20476;-81
2022/01/02 04:08:41;;;;;;;8.37;6.37;;;;;;;;;;5071086;28;20464;-81
2022/01/02 04:11:08;;;;;;;8.00;6.70;;;;;;;;;;5069568;28;20486;-83
2022/01/02 04:13:35;;;;;;;9.93;6.97;;;;;;;;;;5070732;28;20506;-83
2022/01/02 04:16:02;;;;;;;11.47;6.83;;;;;;;;;;5070695;28;20945;-81
2022/01/02 04:18:29;;;;;;;8.47;6.60;;;;;;;;;;5069056;28;20466;-79
2022/01/02 04:20:58;;;;;;;8.60;7.30;;;;;;;;;;5066824;28;20806;-80
2022/01/02 04:23:25;;;;;;;9.83;7.83;;;;;;;;;;5069347;28;20459;-80
2022/01/02 04:25:52;;;;;;;10.93;7.97;;;;;;;;;;5067137;28;20480;-80
2022/01/02 04:28:19;;;;;;;9.07;6.40;;;;;;;;;;5070375;28;20471;-81
2022/01/02 04:30:46;;;;;;;10.30;7.00;;;;;;;;;;5070528;28;20466;-80
2022/01/02 04:33:13;;;;;;;9.00;7.20;;;;;;;;;;5068109;28;20467;-79
2022/01/02 04:35:41;;;;;;;9.67;6.67;;;;;;;;;;5071173;28;20436;-80
2022/01/02 04:38:09;;;;;;;10.03;6.83;;;;;;;;;;5075788;28;20482;-81
2022/01/02 04:40:36;;;;;;;8.93;6.20;;;;;;;;;;5072906;28;20451;-83
2022/01/02 04:43:04;;;;;;;7.30;6.07;;;;;;;;;;5070043;28;20440;-83
2022/01/02 04:45:31;;;;;;;8.53;6.53;;;;;;;;;;5073307;28;20472;-84
2022/01/02 04:47:58;;;;;;;8.70;7.07;;;;;;;;;;5072637;28;20490;-83
2022/01/02 04:50:25;;;;;;;9.33;7.13;;;;;;;;;;5075126;28;20456;-81
2022/01/02 04:52:52;;;;;;;7.80;6.47;;;;;;;;;;5074642;28;20451;-79
2022/01/02 04:55:21;;;;;;;8.43;6.90;;;;;;;;;;5073710;28;20459;-80
2022/01/02 04:57:48;;;;;;;8.50;6.30;;;;;;;;;;5074238;28;20671;-80
2022/01/02 05:00:15;;;;;;;9.00;7.30;;;;;;;;;;5076060;28;20780;-80
2022/01/02 05:02:42;;;;;;;7.03;6.30;;;;;;;;;;5069841;28;20483;-83
2022/01/02 05:05:10;;;;;;;9.60;6.90;;;;;;;;;;5068139;28;20464;-80
2022/01/02 05:07:37;;;;;;;9.70;7.63;;;;;;;;;;5069581;28;20467;-80
2022/01/02 05:10:04;;;;;;;12.33;7.90;;;;;;;;;;5066924;28;20448;-80
2022/01/02 05:12:34;;;;;;;10.97;7.80;;;;;;;;;;5072080;28;20924;-82
2022/01/02 05:15:01;;;;;;;10.47;7.87;;;;;;;;;;5071569;28;20479;-81
2022/01/02 05:17:28;;;;;;;9.40;7.50;;;;;;;;;;5070333;28;20460;-83
2022/01/02 05:19:55;;;;;;;8.53;6.87;;;;;;;;;;5071451;28;20444;-81
2022/01/02 05:22:22;;;;;;;9.37;7.87;;;;;;;;;;5070224;28;20454;-80
2022/01/02 05:24:50;;;;;;;9.50;7.50;;;;;;;;;;5051528;28;20803;-81
2022/01/02 05:27:17;;;;;;;13.00;7.53;;;;;;;;;;5053804;28;20445;-80
2022/01/02 05:29:45;;;;;;;8.70;7.23;;;;;;;;;;5054978;28;20491;-82
2022/01/02 05:32:13;;;;;;;13.07;7.57;;;;;;;;;;5074296;28;20854;-79
2022/01/02 05:34:40;;;;;;;11.53;7.57;;;;;;;;;;5072468;28;20801;-79
2022/01/02 05:37:07;;;;;;;13.30;8.23;;;;;;;;;;5065502;28;20471;-79
2022/01/02 05:39:34;;;;;;;9.03;7.27;;;;;;;;;;5069300;28;20479;-80
2022/01/02 05:42:02;;;;;;;10.03;7.87;;;;;;;;;;5072641;28;20440;-80
2022/01/02 05:44:30;;;;;;;11.10;7.60;;;;;;;;;;5054485;28;20440;-79
2022/01/02 05:46:59;;;;;;;8.77;7.10;;;;;;;;;;5071150;28;20474;-81
2022/01/02 05:49:26;;;;;;;12.20;8.40;;;;;;;;;;5070595;28;20480;-79
2022/01/02 05:51:53;;;;;;;13.03;8.10;;;;;;;;;;5070733;28;20466;-79
2022/01/02 05:54:20;;;;;;;12.13;8.50;;;;;;;;;;5072376;28;20517;-81
2022/01/02 05:56:47;;;;;;;8.90;7.77;;;;;;;;;;5071944;28;20439;-79
2022/01/02 05:59:15;;;;;;;10.77;8.33;;;;;;;;;;5070877;28;20837;-79
2022/01/02 06:01:42;;;;;;;11.40;8.47;;;;;;;;;;5072718;28;20913;-78
2022/01/02 06:04:10;;;;;;;14.77;7.60;;;;;;;;;;5075752;28;20462;-81
2022/01/02 06:06:37;;;;;;;12.07;8.70;;;;;;;;;;5071924;28;20480;-78
2022/01/02 06:09:05;;;;;;;12.80;8.47;;;;;;;;;;5070550;28;20459;-81
2022/01/02 06:11:32;;;;;;;10.40;8.30;;;;;;;;;;5070389;28;20448;-82
2022/01/02 06:13:59;;;;;;;12.20;8.20;;;;;;;;;;5069926;28;20464;-81
2022/01/02 06:16:26;;;;;;;10.53;8.10;;;;;;;;;;5069055;28;20560;-78
2022/01/02 06:18:53;;;;;;;14.90;7.90;;;;;;;;;;5068306;28;20476;-79
2022/01/02 06:21:22;;;;;;;12.53;8.80;;;;;;;;;;5070894;28;20460;-80
2022/01/02 06:23:49;;;;;;;17.03;7.37;;;;;;;;;;5070299;28;20460;-81
2022/01/02 06:26:16;;;;;;;13.10;8.17;;;;;;;;;;5068367;28;20841;-83
2022/01/02 06:28:43;;;;;;;9.00;7.57;;;;;;;;;;5069529;28;20460;-79
2022/01/02 06:31:11;;;;;;;12.33;8.33;;;;;;;;;;5072102;28;20454;-82
2022/01/02 06:33:38;;;;;;;10.37;7.77;;;;;;;;;;5070289;28;20456;-84
2022/01/02 06:36:05;;;;;;;9.27;7.00;;;;;;;;;;5068034;28;20471;-79
2022/01/02 06:38:34;;;;;;;9.50;7.23;;;;;;;;;;5054709;28;20457;-80
2022/01/02 06:41:01;;;;;;;12.73;7.33;;;;;;;;;;5083933;28;20436;-79
2022/01/02 06:43:28;;;;;;;9.13;6.90;;;;;;;;;;5055325;28;20443;-80
2022/01/02 06:45:55;;;;;;;9.50;7.80;;;;;;;;;;5071941;28;20812;-80
2022/01/02 06:48:23;;;;;;;10.00;7.07;;;;;;;;;;5067299;28;20503;-80
2022/01/02 06:50:50;;;;;;;11.90;7.30;;;;;;;;;;5066478;28;20456;-83
2022/01/02 06:53:17;;;;;;;9.50;7.60;;;;;;;;;;5053021;28;20475;-79
2022/01/02 06:55:46;;;;;;;9.63;7.10;;;;;;;;;;5069968;28;20491;-80
2022/01/02 06:58:14;;;;;;;10.20;7.43;;;;;;;;;;5051069;28;20966;-82
2022/01/02 07:00:41;;;;;;;9.40;7.60;;;;;;;;;;5071492;28;21012;-82
2022/01/02 07:03:09;;;;;;;9.03;6.97;;;;;;;;;;5074410;28;20467;-79
2022/01/02 07:05:36;;;;;;;9.30;6.73;;;;;;;;;;5074310;28;20512;-83
2022/01/02 07:08:03;;;;;;;10.90;7.17;;;;;;;;;;5092789;28;20459;-82
2022/01/02 07:10:30;;;;;;;9.43;6.53;;;;;;;;;;5049487;28;20444;-82
2022/01/02 07:13:00;;;;;;;9.70;6.97;;;;;;;;;;5069166;28;20468;-81
2022/01/02 07:15:27;;;;;;;8.83;6.13;;;;;;;;;;5070442;28;20448;-81
2022/01/02 07:17:54;;;;;;;9.03;6.90;;;;;;;;;;5069155;28;20798;-81
2022/01/02 07:20:21;;;;;;;9.90;6.83;;;;;;;;;;5068579;28;20466;-80
2022/01/02 07:22:48;;;;;;;9.13;6.57;;;;;;;;;;5069931;28;20455;-81
2022/01/02 07:25:16;;;;;;;8.40;5.70;;;;;;;;;;5071579;28;20468;-80
2022/01/02 07:27:43;;;;;;;9.73;6.57;;;;;;;;;;5065533;28;20480;-84
2022/01/02 07:30:12;;;;;;;8.60;5.87;;;;;;;;;;5068248;28;20451;-82
2022/01/02 07:32:39;;;;;;;6.57;5.87;;;;;;;;;;5057407;28;20985;-80
2022/01/02 07:35:07;;;;;;;8.30;6.03;;;;;;;;;;5070669;28;20509;-81
2022/01/02 07:37:35;;;;;;;8.80;5.87;;;;;;;;;;5069213;28;20441;-82
2022/01/02 07:40:02;;;;;;;6.97;5.90;;;;;;;;;;5072643;28;20436;-80
2022/01/02 07:42:29;;;;;;;8.40;5.90;;;;;;;;;;5050619;28;20534;-82
2022/01/02 07:44:58;;;;;;;6.40;5.80;;;;;;;;;;5050469;28;20448;-82
2022/01/02 07:47:26;;;;;;;8.13;5.97;;;;;;;;;;5067416;28;20551;-81
2022/01/02 07:49:53;;;;;;;8.17;5.53;;;;;;;;;;5070050;28;20476;-80
2022/01/02 07:52:20;;;;;;;6.93;6.23;;;;;;;;;;5070538;28;20454;-84
2022/01/02 07:54:47;;;;;;;7.60;5.47;;;;;;;;;;5069793;28;20476;-79
2022/01/02 07:57:15;;;;;;;10.53;6.00;;;;;;;;;;5068405;28;20467;-82
2022/01/02 07:59:42;;;;;;;8.40;6.00;;;;;;;;;;5050674;28;20500;-83
2022/01/02 08:02:09;;;;;;;5.63;5.13;;;;;;;;;;5059887;28;20453;-82
2022/01/02 08:04:38;;;;;;;8.43;5.67;;;;;;;;;;5065025;28;20439;-77
2022/01/02 08:07:05;;;;;;;6.20;5.47;;;;;;;;;;5061270;28;20476;-78
2022/01/02 08:09:32;;;;;;;7.23;5.00;;;;;;;;;;5067168;28;20460;-78
2022/01/02 08:11:59;;;;;;;7.13;5.83;;;;;;;;;;5068054;28;20452;-79
2022/01/02 08:14:27;;;;;;;7.83;5.33;;;;;;;;;;5069071;28;20456;-80
2022/01/02 08:16:54;;;;;;;6.40;5.00;;;;;;;;;;5066714;28;20468;-79
2022/01/02 08:19:21;;;;;;;8.00;5.20;;;;;;;;;;5067944;28;20472;-78
2022/01/02 08:21:50;;;;;;;6.00;4.80;;;;;;;;;;5068582;28;20800;-83
2022/01/02 08:24:17;;;;;;;5.43;4.53;;;;;;;;;;5067416;28;20447;-77
2022/01/02 08:26:46;;;;;;;5.53;4.93;;;;;;;;;;5064888;28;21184;-77
2022/01/02 08:29:13;;;;;;;7.50;5.10;;;;;;;;;;5061602;28;20472;-79
2022/01/02 08:31:41;;;;;;;5.27;4.20;;;;;;;;;;5069148;28;20555;-78
2022/01/02 08:34:08;;;;;;;7.60;5.47;;;;;;;;;;5063379;28;20518;-78
2022/01/02 08:36:35;;;;;;;7.07;4.90;;;;;;;;;;5065433;28;20437;-79
2022/01/02 08:39:04;;;;;;;5.57;4.53;;;;;;;;;;5067564;28;20704;-76
2022/01/02 08:41:31;;;;;;;6.90;5.13;;;;;;;;;;5069088;28;20799;-79
2022/01/02 08:43:58;;;;;;;6.80;4.97;;;;;;;;;;5069349;28;20444;-77
2022/01/02 08:46:25;;;;;;;6.07;4.60;;;;;;;;;;5069463;28;20503;-79
2022/01/02 08:48:52;;;;;;;8.77;4.80;;;;;;;;;;5067962;28;20488;-77
2022/01/02 08:51:20;;;;;;;5.87;5.10;;;;;;;;;;5069210;28;20460;-79
2022/01/02 08:53:47;;;;;;;7.03;4.70;;;;;;;;;;5066659;28;20463;-79
2022/01/02 08:56:16;;;;;;;5.90;4.37;;;;;;;;;;5064574;28;20467;-77
2022/01/02 08:58:43;;;;;;;6.90;4.67;;;;;;;;;;5048325;28;20477;-80
2022/01/02 09:01:10;;;;;;;9.23;5.87;;;;;;;;;;5067623;28;20452;-79
2022/01/02 09:03:37;;;;;;;5.43;4.40;;;;;;;;;;5068860;28;20439;-76
2022/01/02 09:06:04;;;;;;;6.10;4.43;;;;;;;;;;5065644;28;20467;-80
2022/01/02 09:08:32;;;;;;;4.93;3.97;;;;;;;;;;5065131;28;20476;-77
2022/01/02 09:10:59;;;;;;;6.70;4.43;;;;;;;;;;5064850;28;20452;-81
2022/01/02 09:13:27;;;;;;;5.07;4.00;;;;;;;;;;5067278;28;20872;-80
2022/01/02 09:15:55;;;;;;;5.33;4.10;;;;;;;;;;5066263;28;20947;-82
2022/01/02 09:18:22;;;;;;;5.90;4.37;;;;;;;;;;5056546;28;20448;-80
2022/01/02 09:20:49;;;;;;;4.03;3.63;;;;;;;;;;5066664;28;20567;-81
2022/01/02 09:23:16;;;;;;;4.70;4.20;;;;;;;;;;5069940;28;20463;-83
2022/01/02 09:25:43;;;;;;;5.60;4.40;;;;;;;;;;5074901;28;20447;-78
2022/01/02 09:28:11;;;;;;;6.57;4.07;;;;;;;;;;5073616;28;20837;-80
2022/01/02 09:30:40;;;;;;;4.97;3.83;;;;;;;;;;5052344;28;20938;-77
2022/01/02 09:33:08;;;;;;;7.10;4.43;;;;;;;;;;5069701;28;20821;-80
2022/01/02 09:35:36;;;;;;;3.70;3.40;;;;;;;;;;5063948;28;20538;-81
2022/01/02 09:38:03;;;;;;;5.03;3.90;;;;;;;;;;5069944;28;20549;-81
2022/01/02 09:40:31;;;;;;;4.10;3.50;;;;;;;;;;5073219;28;20786;-80
2022/01/02 09:42:59;;;;;;;5.33;3.73;;;;;;;;;;5072520;28;20440;-83
2022/01/02 09:45:26;;;;;;;5.00;3.83;;;;;;;;;;5071027;28;20460;-83
2022/01/02 09:47:55;;;;;;;3.57;3.27;;;;;;;;;;5072246;28;20987;-82
2022/01/02 09:50:22;;;;;;;4.33;3.60;;;;;;;;;;5072631;28;20447;-78
2022/01/02 09:52:51;;;;;;;4.70;3.30;;;;;;;;;;5069822;28;20945;-78
2022/01/02 09:55:19;;;;;;;4.17;3.50;;;;;;;;;;5067114;28;20572;-82
2022/01/02 09:57:47;;;;;;;5.50;3.30;;;;;;;;;;5069249;28;20467;-77
2022/01/02 10:00:15;;;;;;;3.80;3.27;;;;;;;;;;5051278;28;20820;-77
2022/01/02 10:02:57;;;;;;;4.80;3.53;;;;;;;;;;5070212;28;20466;-82
2022/01/02 10:05:26;;;;;;;4.50;3.47;;;;;;;;;;5054719;28;20818;-85
2022/01/02 10:07:54;;;;;;;4.00;3.30;;;;;;;;;;5070472;28;20484;-85
2022/01/02 10:10:21;;;;;;;4.40;3.23;;;;;;;;;;5070952;28;20463;-80
2022/01/02 10:12:48;;;;;;;3.30;2.73;;;;;;;;;;5068501;28;20436;-77
2022/01/02 10:15:17;;;;;;;3.10;2.80;;;;;;;;;;5068602;28;21308;-81
2022/01/02 10:17:53;;;;;;;4.30;2.90;;;;;;;;;;5036182;28;21037;-79
2022/01/02 10:20:20;;;;;;;2.87;2.57;;;;;;;;;;5051567;28;21023;-81
2022/01/02 10:23:02;;;;;;;3.30;2.90;;;;;;;;;;5052810;28;20468;-81
2022/01/02 10:25:44;;;;;;;3.20;2.83;;;;;;;;;;5039149;28;20544;-80
2022/01/02 10:28:26;;;;;;;4.10;3.23;;;;;;;;;;5063798;28;20494;-85
2022/01/02 10:30:55;;;;;;;4.20;3.27;;;;;;;;;;5069714;28;20443;-82
2022/01/02 10:33:22;;;;;;;3.00;2.70;;;;;;;;;;5067072;28;20850;-83
2022/01/02 10:35:56;;;;;;;3.67;3.27;;;;;;;;;;5068249;28;20460;-82
2022/01/02 10:38:25;;;;;;;3.50;2.70;;;;;;;;;;5053641;28;20447;-85
2022/01/02 10:40:52;;;;;;;3.93;3.10;;;;;;;;;;5072144;28;20436;-83
2022/01/02 10:43:25;;;;;;;5.83;2.80;;;;;;;;;;5068890;28;20491;-83
2022/01/02 10:45:53;;;;;;;3.83;3.20;;;;;;;;;;5050394;28;20440;-80
2022/01/02 10:48:31;;;;;;;5.50;4.07;;;;;;;;;;5069998;28;20514;-81
2022/01/02 10:50:59;;;;;;;5.90;3.60;;;;;;;;;;5053557;28;20544;-77
2022/01/02 10:53:28;;;;;;;4.87;3.43;;;;;;;;;;5052515;28;20432;-78
2022/01/02 10:55:55;;;;;;;5.53;3.30;;;;;;;;;;5055723;28;20440;-80
2022/01/02 10:58:24;;;;;;;3.73;3.07;;;;;;;;;;5064652;28;20470;-84
2022/01/02 11:00:51;;;;;;;6.90;3.20;;;;;;;;;;5059453;28;20461;-82
2022/01/02 11:03:24;;;;;;;5.70;3.40;;;;;;;;;;5066858;28;20909;-82
2022/01/02 11:05:54;;;;;;;6.80;3.83;;;;;;;;;;5054828;28;20449;-78
2022/01/02 11:08:21;;;;;;;5.00;3.80;;;;;;;;;;5069819;28;20484;-83
2022/01/02 11:10:50;;;;;;;5.17;4.40;;;;;;;;;;5061185;28;20437;-78
2022/01/02 11:13:19;;;;;;;10.87;6.53;;;;;;;;;;5050187;28;20432;-77
2022/01/02 11:15:46;;;;;;;6.03;3.97;;;;;;;;;;5056642;28;20465;-78
2022/01/02 11:18:14;;;;;;;8.37;4.20;;;;;;;;;;5068562;28;20449;-83
2022/01/02 11:20:42;;;;;;;6.67;4.17;;;;;;;;;;5067150;28;21136;-81
2022/01/02 11:23:14;;;;;;;7.77;5.37;;;;;;;;;;5053402;28;20453;-77
2022/01/02 11:25:44;;;;;;;8.37;5.60;;;;;;;;;;5070039;28;20532;-76
2022/01/02 11:28:18;;;;;;;6.17;4.23;;;;;;;;;;5067734;28;20481;-83
2022/01/02 11:30:45;;;;;;;5.73;4.40;;;;;;;;;;5037804;28;20932;-78
2022/01/02 11:33:13;;;;;;;5.33;4.03;;;;;;;;;;5065675;28;20467;-81
2022/01/02 11:35:41;;;;;;;7.07;3.50;;;;;;;;;;5066451;28;20461;-81
2022/01/02 11:38:09;;;;;;;4.30;3.17;;;;;;;;;;5054937;28;20464;-79
2022/01/02 11:40:44;;;;;;;5.33;3.60;;;;;;;;;;5051619;28;20450;-82
2022/01/02 11:43:32;;;;;;;8.00;4.60;;;;;;;;;;5048614;28;20942;-79
2022/01/02 11:46:15;;;;;;;5.50;3.90;;;;;;;;;;5052977;28;20463;-81
2022/01/02 11:48:42;;;;;;;7.20;5.10;;;;;;;;;;5067042;28;20490;-79
2022/01/02 11:51:09;;;;;;;4.83;3.50;;;;;;;;;;5051938;28;20439;-82
2022/01/02 11:53:36;;;;;;;4.63;3.80;;;;;;;;;;5070090;28;20802;-82
2022/01/02 11:56:05;;;;;;;4.57;3.70;;;;;;;;;;5070216;28;20967;-79
2022/01/02 11:58:47;;;;;;;9.73;4.13;;;;;;;;;;5049532;28;20894;-79
2022/01/02 12:01:40;;;;;;;5.10;3.50;;;;;;;;;;5054502;28;20461;-80
2022/01/02 12:04:08;;;;;;;5.60;3.40;;;;;;;;;;5050617;28;20943;-79
2022/01/02 12:06:36;;;;;;;5.33;3.17;;;;;;;;;;5067080;28;20452;-78
2022/01/02 12:09:04;;;;;;;4.60;3.07;;;;;;;;;;5069035;28;21000;-84
2022/01/02 12:11:49;;;;;;;7.40;3.00;;;;;;;;;;5068668;28;20457;-82
2022/01/02 12:14:23;;;;;;;6.00;3.30;;;;;;;;;;5054491;28;20535;-81
2022/01/02 12:17:00;;;;;;;5.60;3.10;;;;;;;;;;5057238;28;20458;-83
2022/01/02 12:19:28;;;;;;;5.50;3.40;;;;;;;;;;5062430;28;20494;-82
2022/01/02 12:22:10;;;;;;;12.33;4.53;;;;;;;;;;5048270;28;20465;-84
2022/01/02 12:24:37;;;;;;;6.00;3.30;;;;;;;;;;5050578;28;20536;-79
2022/01/02 12:27:12;;;;;;;5.67;3.50;;;;;;;;;;5068408;28;20456;-81
2022/01/02 12:29:40;;;;;;;4.57;2.90;;;;;;;;;;5050224;28;20462;-79
2022/01/02 12:32:09;;;;;;;6.50;3.30;;;;;;;;;;5063971;28;20485;-78
2022/01/02 12:34:36;;;;;;;8.50;3.50;;;;;;;;;;5048785;28;20453;-78
2022/01/02 12:37:04;;;;;;;5.50;2.63;;;;;;;;;;5065417;28;20559;-79
2022/01/02 12:39:33;;;;;;;7.17;3.47;;;;;;;;;;5062495;28;20467;-81
2022/01/02 12:42:02;;;;;;;4.17;2.90;;;;;;;;;;5064137;28;20510;-79
2022/01/02 12:44:30;;;;;;;5.83;3.47;;;;;;;;;;5047788;28;20452;-79
2022/01/02 12:46:58;;;;;;;5.43;2.90;;;;;;;;;;5062344;28;20463;-80
2022/01/02 12:49:28;;;;;;;7.67;3.63;;;;;;;;;;5062988;28;20506;-79
2022/01/02 12:51:56;;;;;;;5.13;2.93;;;;;;;;;;5066288;28;21046;-82
2022/01/02 12:54:24;;;;;;;10.10;3.90;;;;;;;;;;5048203;28;20503;-78
2022/01/02 12:56:53;;;;;;;5.53;2.80;;;;;;;;;;5063516;28;20844;-82
2022/01/02 12:59:22;;;;;;;5.70;3.30;;;;;;;;;;5050509;28;20463;-79
2022/01/02 13:01:50;;;;;;;5.80;2.73;;;;;;;;;;5070005;28;20446;-78
2022/01/02 13:04:18;;;;;;;4.77;3.07;;;;;;;;;;5070897;28;20547;-79
2022/01/02 13:06:47;;;;;;;7.20;3.37;;;;;;;;;;5070161;28;20506;-80
2022/01/02 13:09:14;;;;;;;7.77;3.93;;;;;;;;;;5066353;28;20999;-79
2022/01/02 13:11:41;;;;;;;4.77;3.20;;;;;;;;;;5052130;28;20452;-81
2022/01/02 13:14:09;;;;;;;7.13;4.40;;;;;;;;;;5052407;28;20801;-80
2022/01/02 13:16:36;;;;;;;4.40;3.20;;;;;;;;;;5058981;28;20946;-78
2022/01/02 13:19:05;;;;;;;5.47;3.13;;;;;;;;;;5067463;28;20472;-77
2022/01/02 13:21:32;;;;;;;5.33;3.10;;;;;;;;;;5068780;28;20951;-81
2022/01/02 13:24:14;;;;;;;4.70;2.97;;;;;;;;;;5072829;28;20447;-82
2022/01/02 13:26:43;;;;;;;6.10;3.27;;;;;;;;;;5057623;28;20425;-83
2022/01/02 13:29:10;;;;;;;7.73;3.60;;;;;;;;;;5073510;28;20483;-83
2022/01/02 13:31:37;;;;;;;5.50;3.33;;;;;;;;;;5073394;28;20462;-82
2022/01/02 13:34:09;;;;;;;6.87;3.67;;;;;;;;;;5075163;28;20962;-84
2022/01/02 13:36:36;;;;;;;2.53;2.33;;;;;;;;;;5075167;28;20447;-82
2022/01/02 13:39:04;;;;;;;12.30;3.60;;;;;;;;;;5072368;28;20462;-81
2022/01/02 13:41:35;;;;;;;3.63;2.77;;;;;;;;;;5070655;28;20451;-82
2022/01/02 13:44:14;;;;;;;6.40;2.83;;;;;;;;;;5055129;28;20466;-81
2022/01/02 13:46:51;;;;;;;5.20;2.87;;;;;;;;;;5055028;28;20480;-81
2022/01/02 13:49:32;;;;;;;3.87;2.70;;;;;;;;;;5072624;28;20496;-80
2022/01/02 13:52:03;;;;;;;6.83;2.93;;;;;;;;;;5057459;28;20445;-80
2022/01/02 13:54:31;;;;;;;3.97;2.50;;;;;;;;;;5073701;28;20467;-80
2022/01/02 13:56:58;;;;;;;5.40;3.13;;;;;;;;;;5074793;28;20445;-80
2022/01/02 13:59:27;;;;;;;4.23;2.50;;;;;;;;;;5074516;28;20963;-78
2022/01/02 14:01:56;;;;;;;4.50;3.10;;;;;;;;;;5070691;28;20450;-80
2022/01/02 14:04:23;;;;;;;5.80;3.20;;;;;;;;;;5070482;28;20438;-82
2022/01/02 14:06:50;;;;;;;7.47;3.20;;;;;;;;;;5072117;28;20450;-81
2022/01/02 14:09:18;;;;;;;5.80;3.03;;;;;;;;;;5071525;28;20476;-84
2022/01/02 14:11:47;;;;;;;4.63;2.33;;;;;;;;;;5054983;28;20451;-80
2022/01/02 14:14:19;;;;;;;4.80;2.83;;;;;;;;;;5072517;28;20453;-82
2022/01/02 14:17:14;;;;;;;5.87;4.30;;;;;;;;;;5056372;28;20459;-82
2022/01/02 14:19:43;;;;;;;10.10;4.97;;;;;;;;;;5061110;28;20466;-80
2022/01/02 14:22:11;;;;;;;6.77;4.30;;;;;;;;;;5073699;28;21045;-83
2022/01/02 14:24:38;;;;;;;5.83;4.50;;;;;;;;;;5069959;28;20757;-81
2022/01/02 14:27:06;;;;;;;6.93;4.00;;;;;;;;;;5070514;28;20450;-81
2022/01/02 14:29:33;;;;;;;8.50;4.30;;;;;;;;;;5054814;28;20991;-82
2022/01/02 14:32:00;;;;;;;7.53;4.13;;;;;;;;;;5072867;28;20447;-83
2022/01/02 14:34:27;;;;;;;8.10;5.20;;;;;;;;;;5072492;28;20799;-84
2022/01/02 14:36:56;;;;;;;5.10;3.60;;;;;;;;;;5072322;28;20444;-81
2022/01/02 14:39:23;;;;;;;5.60;3.43;;;;;;;;;;5073365;28;20499;-78
2022/01/02 14:41:50;;;;;;;6.43;4.03;;;;;;;;;;5073886;28;20499;-85
2022/01/02 14:44:17;;;;;;;5.90;3.27;;;;;;;;;;5073491;28;20851;-82
2022/01/02 14:46:46;;;;;;;6.23;2.77;;;;;;;;;;5069640;28;20436;-83
2022/01/02 14:49:14;;;;;;;4.07;2.80;;;;;;;;;;5052029;28;20841;-81
2022/01/02 14:51:41;;;;;;;8.03;2.90;;;;;;;;;;5071795;28;20558;-81
2022/01/02 14:54:10;;;;;;;6.40;3.20;;;;;;;;;;5071748;28;20803;-80